• Join FlightAware (Why Join?)
  • Login
  • US Flag 
04:54AM EDT


 

Airport Tracker/Info


-or-


 

Live Flight TrackerFlight Track Log ✈ AAL1890 ✈ 06-May-2013 ✈ KLAS - KDFW

Flight Track Log - Related Links

Times and Time Zones

All times are in EDT time to prevent confusion due to time zone crossing. See the AAL1890 flight status page for this flight to view local times or setup timezone preferences in your user account.

Time Position Orientation Groundspeed Altitude Reporting Facility
EDT Latitude Longitude Course Direction KTS MPH feet Rate Location/Type
10:10AM 36.0761 -115.1683 84° East 169 194 3,200  Level Los Angeles Center
10:11AM 36.0733 -115.2250 267° West 207 238 4,600 1,980 Climbing Los Angeles Center
10:12AM 35.8350 -115.1674 103° East  Level FlightAware Approximate
10:12AM 36.0336 -115.2806 229° Southwest 261 300 6,800  Level Los Angeles Center
10:13AM 35.8207 -115.0227 84° East  Level FlightAware Approximate
10:13AM 35.9603 -115.2647 170° South 271 312 10,300  Level Los Angeles Center
10:14AM 35.8333 -114.8760 90° East  Level FlightAware Approximate
10:14AM 35.9492 -115.1597 97° East 312 359 12,200  Level Los Angeles Center
10:15AM 35.8448 -114.7292 84° East  Level FlightAware Approximate
10:15AM 35.9475 -115.0350 91° East 351 404 14,900  Level Los Angeles Center
10:16AM 35.9461 -114.9044 91° East 373 429 17,600 2,460 Climbing Los Angeles Center
10:17AM 35.9422 -114.7642 92° East 401 461 20,100 2,340 Climbing Los Angeles Center
10:18AM 35.9389 -114.6211 92° East 414 476 22,400 2,160 Climbing Los Angeles Center
10:20AM 35.9336 -114.3253 91° East 427 491 26,700 1,860 Climbing Albuquerque Center
10:22AM 35.9244 -113.9825 92° East 456 525 30,300 1,680 Climbing Los Angeles Center
10:23AM 35.9131 -113.8203 95° East 469 540 32,100 840 Climbing Los Angeles Center
10:25AM 35.8645 -113.5867 102° East  Level FlightAware Approximate
10:25AM 35.8586 -113.4950 102° East 487 560 33,000  Level Albuquerque Center
10:26AM 35.8319 -113.3333 101° East 487 560 33,000  Level Los Angeles Center
10:27AM 35.8022 -113.1422 101° East 478 550 33,000  Level Los Angeles Center
10:28AM 35.7831 -112.9819 98° East 473 544 33,000  Level Los Angeles Center
10:30AM 35.7547 -112.6581 96° East 472 543 33,000  Level Los Angeles Center
10:31AM 35.7411 -112.4956 96° East 475 547 33,000  Level Los Angeles Center
10:32AM 35.7264 -112.3311 96° East 480 552 33,000  Level Los Angeles Center
10:33AM 35.7119 -112.1664 96° East 484 557 33,000  Level Los Angeles Center
10:34AM 35.6964 -112.0025 97° East 483 556 33,000  Level Los Angeles Center
10:36AM 35.6611 -111.6397 97° East 486 559 33,000  Level Los Angeles Center
10:37AM 35.6464 -111.4761 96° East 485 558 33,000  Level Albuquerque Center
10:38AM 35.6328 -111.3200 96° East 480 552 33,000  Level Albuquerque Center
10:40AM 35.6163 -111.1395 96° East  Level FlightAware Approximate
10:40AM 35.5994 -110.9878 96° East 473 544 33,000  Level Albuquerque Center
10:41AM 35.5831 -110.8122 96° East 468 539 33,000 480 Level Albuquerque Center
10:43AM 35.5548 -110.6484 95° East  Level FlightAware Approximate
10:43AM 35.5514 -110.4783 95° East 476 548 34,600  Level Albuquerque Center
10:44AM 35.5342 -110.3189 98° East 486 559 35,000 60 Climbing Albuquerque Center
10:46AM 35.5199 -110.1655 96° East  Level FlightAware Approximate
10:49AM 35.4619 -109.6403 98° East 481 554 35,000  Level Albuquerque Center
10:50AM 35.4439 -109.4867 98° East 479 551 35,000  Level Albuquerque Center
10:51AM 35.4225 -109.3058 98° East 480 552 35,000  Level Albuquerque Center
10:52AM 35.4042 -109.1519 98° East 479 551 35,000  Level Albuquerque Center
10:53AM 35.4039 -109.1128 98° East  Level FlightAware Approximate
10:54AM 35.3856 -108.9629 98° East  Level FlightAware Approximate
10:54AM 35.3716 -108.8794 98° East  Level FlightAware Approximate
10:55AM 35.3442 -108.6367 98° East 483 556 35,000  Level Albuquerque Center
10:57AM 35.3115 -108.3772 99° East  Level FlightAware Approximate
10:58AM 35.2831 -108.1403 99° East 492 566 35,000  Level Albuquerque Center
10:59AM 35.2639 -107.9842 99° East 489 563 35,000  Level Albuquerque Center
11:00AM 35.2394 -107.7997 99° East 491 565 35,000  Level Albuquerque Center
11:02AM 35.2049 -107.5641 99° East  Level FlightAware Approximate
11:03AM 35.1714 -107.2894 99° East 494 568 35,000  Level Albuquerque Center
11:04AM 35.1483 -107.1100 99° East 503 579 35,000  Level Albuquerque Center
11:05AM 35.1267 -106.9531 100° East 494 568 35,000  Level Albuquerque Center
11:06AM 35.1000 -106.7719 100° East 487 560 35,000  Level Albuquerque Center
11:08AM 35.0736 -106.5658 99° East  Level FlightAware Approximate
11:08AM 35.0564 -106.4458 99° East 504 580 35,000  Level Albuquerque Center
11:09AM 35.0328 -106.2819 100° East 495 570 35,000  Level Albuquerque Center
11:10AM 35.0094 -106.1200 100° East 487 560 35,000  Level Albuquerque Center
11:12AM 34.9833 -105.9320 100° East  Level FlightAware Approximate
11:14AM 34.9103 -105.4322 102° East 479 551 35,000  Level Albuquerque Center
11:15AM 34.8872 -105.2708 100° East 480 552 35,000  Level Albuquerque Center
11:17AM 34.8606 -105.1091 101° East  Level FlightAware Approximate
11:17AM 34.8389 -104.9517 101° East 478 550 35,000  Level Albuquerque Center
11:19AM 34.8241 -104.8834 102° East  Level FlightAware Approximate
11:19AM 34.8156 -104.7914 100° East 478 550 35,000  Level Albuquerque Center
11:20AM 34.7986 -104.7344 102° East  Level FlightAware Approximate
11:20AM 34.7908 -104.6333 101° East 475 547 35,000  Level Albuquerque Center
11:22AM 34.7342 -104.3452 101° East  Level FlightAware Approximate
11:23AM 34.7128 -104.1375 101° East 473 544 35,000  Level Albuquerque Center
11:24AM 34.6872 -103.9811 101° East 471 542 35,000  Level Albuquerque Center
11:26AM 34.6409 -103.7142 102° East  Level FlightAware Approximate
11:27AM 34.6117 -103.5392 102° East 475 547 35,000  Level Fort Worth Center
11:29AM 34.5602 -103.2532 102° East  Level FlightAware Approximate
11:30AM 34.5322 -103.0522 102° East 470 541 35,000  Level Fort Worth Center
11:30AM 34.5281 -103.0128 97° East 474 545 35,000  Level Albuquerque Center
11:31AM 34.5014 -102.8553 102° East 474 545 35,000  Level Albuquerque Center
11:34AM 34.4547 -102.4225 97° East 470 541 35,000  Level Fort Worth Center
11:35AM 34.4300 -102.1928 97° East 480 552 35,000  Level Albuquerque Center
11:37AM 34.3958 -101.8722 97° East 483 556 35,000  Level Albuquerque Center
11:38AM 34.3736 -101.6778 98° East 486 559 35,000  Level Albuquerque Center
11:39AM 34.3692 -101.6353 97° East 484 557 35,000  Level Fort Worth Center
11:41AM 34.3322 -101.2939 97° East 489 563 35,000  Level Fort Worth Center
11:42AM 34.3119 -101.1322 99° East 489 563 35,000  Level Fort Worth Center
11:43AM 34.2919 -100.9653 98° East 491 565 35,000  Level Fort Worth Center
11:44AM 34.2733 -100.8011 98° East 491 565 35,000  Level Fort Worth Center
11:45AM 34.2544 -100.6472 98° East 478 550 35,000  Level Fort Worth Center
11:46AM 34.2375 -100.4958 98° East 464 534 35,000  Level Fort Worth Center
11:47AM 34.2178 -100.3594 100° East 459 528 35,000 -1,320 Level Fort Worth Center
11:49AM 34.1536 -100.0561 104° East 438 504 31,100 -1,920 Descending Fort Worth Center
11:50AM 34.1147 -99.9169 109° East 438 504 29,300 -1,080 Descending Fort Worth Center
11:51AM 34.0819 -99.7858 107° East 425 489 29,000 -780 Descending Fort Worth Center
11:53AM 33.9965 -99.5166 108° East  Level FlightAware Approximate
11:54AM 33.9603 -99.3417 108° East 465 535 26,200  Level Fort Worth Center
11:55AM 33.9206 -99.1931 108° East 480 552 24,700 -1,140 Descending Fort Worth Center
11:56AM 33.8808 -99.0447 108° East 475 547 24,000 -360 Descending Fort Worth Center
11:57AM 33.8431 -98.9039 108° East 461 531 24,000  Level Fort Worth Center
11:58AM 33.7989 -98.7558 110° East 461 531 24,000  Level Fort Worth Center
11:59AM 33.7586 -98.6103 108° East 461 531 24,000 -420 Level Fort Worth Center
12:01PM 33.6770 -98.3413 107° East  Level FlightAware Approximate
12:02PM 33.6428 -98.1919 107° East 428 493 22,400  Level Fort Worth Center
12:03PM 33.6061 -98.0644 109° East 413 475 20,700 -2,100 Descending Fort Worth Center
12:04PM 33.5711 -97.9394 109° East 397 457 18,300 -2,220 Descending Fort Worth Center
12:05PM 33.5300 -97.8172 112° Southeast 390 449 16,300 -1,860 Descending Fort Worth Center
12:06PM 33.4653 -97.7397 135° Southeast 373 429 14,600 -2,040 Descending Fort Worth Center
12:07PM 33.3883 -97.6472 135° Southeast 358 412 12,300 -1,800 Descending Fort Worth Center
12:08PM 33.3175 -97.5650 136° Southeast 353 406 11,000 -660 Descending Fort Worth Center
12:09PM 33.2550 -97.4931 136° Southeast 346 398 11,000  Level Fort Worth Center
12:10PM 33.1778 -97.4036 136° Southeast 346 398 11,000  Level Fort Worth Center
12:12PM 33.0333 -97.2333 135° Southeast 295 339 11,000  Level Dallas / Fort Worth TRACON
12:13PM 32.9875 -97.1831 137° Southeast 301 346 11,000 -1,140 Level Fort Worth Center
12:15PM 32.8456 -97.1711 176° South 250 288 7,900 -1,680 Descending Fort Worth Center
12:17PM 32.7286 -97.1369 166° South 224 258 4,400 -1,800 Descending Fort Worth Center
12:17PM 32.7333 -97.1167 75° East 196 226 3,800 -1,380 Descending Dallas / Fort Worth TRACON
12:18PM 32.7667 -97.0667 52° Northeast 182 209 2,700 -960 Descending Dallas / Fort Worth TRACON
12:19PM 32.8167 -97.0500 16° North 154 177 1,900 -720 Descending Dallas / Fort Worth TRACON
12:20PM 32.8500 -97.0500 360° North 132 152 1,300 -600 Descending Dallas / Fort Worth TRACON